sensor_id;sensor_type;location;lat;lon;timestamp;P1;durP1;ratioP1;P2;durP2;ratioP2
64419;SDS011;50745;48.170;14.516;2022-07-03T00:02:24;3.58;;;3.10;;
64419;SDS011;50745;48.170;14.516;2022-07-03T00:12:25;3.72;;;3.20;;
64419;SDS011;50745;48.170;14.516;2022-07-03T00:22:26;4.53;;;3.30;;
64419;SDS011;50745;48.170;14.516;2022-07-03T00:32:29;3.65;;;2.97;;
64419;SDS011;50745;48.170;14.516;2022-07-03T00:42:30;4.07;;;3.15;;
64419;SDS011;50745;48.170;14.516;2022-07-03T00:52:32;4.68;;;3.40;;
64419;SDS011;50745;48.170;14.516;2022-07-03T01:12:40;4.40;;;3.47;;
64419;SDS011;50745;48.170;14.516;2022-07-03T01:22:53;4.20;;;3.53;;
64419;SDS011;50745;48.170;14.516;2022-07-03T01:33:12;4.50;;;3.50;;
64419;SDS011;50745;48.170;14.516;2022-07-03T01:43:16;4.18;;;3.50;;
64419;SDS011;50745;48.170;14.516;2022-07-03T01:53:19;4.30;;;3.60;;
64419;SDS011;50745;48.170;14.516;2022-07-03T02:03:26;4.63;;;3.72;;
64419;SDS011;50745;48.170;14.516;2022-07-03T02:13:28;4.00;;;3.55;;
64419;SDS011;50745;48.170;14.516;2022-07-03T02:23:31;4.20;;;3.50;;
64419;SDS011;50745;48.170;14.516;2022-07-03T02:33:33;4.40;;;3.65;;
64419;SDS011;50745;48.170;14.516;2022-07-03T02:43:37;4.93;;;3.88;;
64419;SDS011;50745;48.170;14.516;2022-07-03T02:53:44;3.90;;;3.40;;
64419;SDS011;50745;48.170;14.516;2022-07-03T03:14:20;5.15;;;3.80;;
64419;SDS011;50745;48.170;14.516;2022-07-03T03:24:23;4.50;;;3.70;;
64419;SDS011;50745;48.170;14.516;2022-07-03T03:34:25;6.65;;;3.65;;
64419;SDS011;50745;48.170;14.516;2022-07-03T03:44:27;4.30;;;3.60;;
64419;SDS011;50745;48.170;14.516;2022-07-03T03:54:28;5.38;;;3.75;;
64419;SDS011;50745;48.170;14.516;2022-07-03T04:04:29;4.93;;;3.85;;
64419;SDS011;50745;48.170;14.516;2022-07-03T04:14:30;4.90;;;3.88;;
64419;SDS011;50745;48.170;14.516;2022-07-03T04:24:31;4.22;;;3.70;;
64419;SDS011;50745;48.170;14.516;2022-07-03T04:34:32;4.10;;;3.40;;
64419;SDS011;50745;48.170;14.516;2022-07-03T04:44:33;5.00;;;3.67;;
64419;SDS011;50745;48.170;14.516;2022-07-03T04:54:34;4.30;;;3.45;;
64419;SDS011;50745;48.170;14.516;2022-07-03T05:04:36;5.80;;;3.75;;
64419;SDS011;50745;48.170;14.516;2022-07-03T05:14:37;4.22;;;3.63;;
64419;SDS011;50745;48.170;14.516;2022-07-03T05:24:38;4.13;;;3.50;;
64419;SDS011;50745;48.170;14.516;2022-07-03T05:34:39;4.30;;;3.67;;
64419;SDS011;50745;48.170;14.516;2022-07-03T05:44:40;5.22;;;3.90;;
64419;SDS011;50745;48.170;14.516;2022-07-03T05:54:41;4.30;;;3.90;;
64419;SDS011;50745;48.170;14.516;2022-07-03T06:04:43;4.00;;;3.60;;
64419;SDS011;50745;48.170;14.516;2022-07-03T06:14:44;3.90;;;3.47;;
64419;SDS011;50745;48.170;14.516;2022-07-03T06:24:45;4.60;;;3.67;;
64419;SDS011;50745;48.170;14.516;2022-07-03T06:34:46;4.30;;;3.88;;
64419;SDS011;50745;48.170;14.516;2022-07-03T06:44:47;3.90;;;3.42;;
64419;SDS011;50745;48.170;14.516;2022-07-03T06:54:48;4.43;;;3.80;;
64419;SDS011;50745;48.170;14.516;2022-07-03T07:04:49;4.38;;;3.60;;
64419;SDS011;50745;48.170;14.516;2022-07-03T07:14:51;4.28;;;3.58;;
64419;SDS011;50745;48.170;14.516;2022-07-03T07:24:52;4.35;;;3.75;;
64419;SDS011;50745;48.170;14.516;2022-07-03T07:34:53;4.50;;;3.80;;
64419;SDS011;50745;48.170;14.516;2022-07-03T07:44:54;4.70;;;4.05;;
64419;SDS011;50745;48.170;14.516;2022-07-03T07:54:55;5.25;;;3.70;;
64419;SDS011;50745;48.170;14.516;2022-07-03T08:04:57;4.22;;;3.70;;
64419;SDS011;50745;48.170;14.516;2022-07-03T08:15:16;3.97;;;3.53;;
64419;SDS011;50745;48.170;14.516;2022-07-03T08:25:18;4.20;;;3.70;;
64419;SDS011;50745;48.170;14.516;2022-07-03T08:35:19;4.65;;;4.00;;
64419;SDS011;50745;48.170;14.516;2022-07-03T08:45:22;4.75;;;3.83;;
64419;SDS011;50745;48.170;14.516;2022-07-03T08:55:24;4.68;;;3.92;;
64419;SDS011;50745;48.170;14.516;2022-07-03T09:05:25;4.32;;;3.30;;
64419;SDS011;50745;48.170;14.516;2022-07-03T09:15:26;3.95;;;3.42;;
64419;SDS011;50745;48.170;14.516;2022-07-03T09:25:27;6.32;;;3.78;;
64419;SDS011;50745;48.170;14.516;2022-07-03T09:35:29;5.07;;;3.75;;
64419;SDS011;50745;48.170;14.516;2022-07-03T09:55:59;4.85;;;3.85;;
64419;SDS011;50745;48.170;14.516;2022-07-03T10:06:02;4.50;;;3.78;;
64419;SDS011;50745;48.170;14.516;2022-07-03T10:16:05;4.93;;;3.70;;
64419;SDS011;50745;48.170;14.516;2022-07-03T10:26:07;4.78;;;4.00;;
64419;SDS011;50745;48.170;14.516;2022-07-03T10:36:09;5.25;;;4.10;;
64419;SDS011;50745;48.170;14.516;2022-07-03T10:46:12;9.13;;;4.43;;
64419;SDS011;50745;48.170;14.516;2022-07-03T10:56:14;22.90;;;5.20;;
64419;SDS011;50745;48.170;14.516;2022-07-03T11:06:18;22.95;;;5.22;;
64419;SDS011;50745;48.170;14.516;2022-07-03T11:16:23;17.00;;;4.80;;
64419;SDS011;50745;48.170;14.516;2022-07-03T11:26:27;8.98;;;4.60;;
64419;SDS011;50745;48.170;14.516;2022-07-03T11:36:29;12.50;;;4.57;;
64419;SDS011;50745;48.170;14.516;2022-07-03T11:46:31;7.63;;;3.85;;
64419;SDS011;50745;48.170;14.516;2022-07-03T11:56:34;8.07;;;4.10;;
64419;SDS011;50745;48.170;14.516;2022-07-03T12:06:40;6.90;;;3.90;;
64419;SDS011;50745;48.170;14.516;2022-07-03T12:16:42;4.95;;;4.10;;
64419;SDS011;50745;48.170;14.516;2022-07-03T12:26:43;6.88;;;4.10;;
64419;SDS011;50745;48.170;14.516;2022-07-03T12:36:58;5.25;;;3.83;;
64419;SDS011;50745;48.170;14.516;2022-07-03T12:47:00;5.30;;;3.95;;
64419;SDS011;50745;48.170;14.516;2022-07-03T12:57:05;4.90;;;3.80;;
64419;SDS011;50745;48.170;14.516;2022-07-03T13:07:30;7.80;;;4.43;;
64419;SDS011;50745;48.170;14.516;2022-07-03T13:27:51;10.35;;;5.03;;
64419;SDS011;50745;48.170;14.516;2022-07-03T13:37:53;7.55;;;4.70;;
64419;SDS011;50745;48.170;14.516;2022-07-03T13:47:54;7.68;;;4.50;;
64419;SDS011;50745;48.170;14.516;2022-07-03T13:57:55;8.48;;;4.40;;
64419;SDS011;50745;48.170;14.516;2022-07-03T14:07:57;7.20;;;4.22;;
64419;SDS011;50745;48.170;14.516;2022-07-03T14:18:02;7.85;;;4.45;;
64419;SDS011;50745;48.170;14.516;2022-07-03T14:28:03;9.02;;;4.15;;
64419;SDS011;50745;48.170;14.516;2022-07-03T14:38:23;7.90;;;4.30;;
64419;SDS011;50745;48.170;14.516;2022-07-03T14:48:25;19.52;;;5.82;;
64419;SDS011;50745;48.170;14.516;2022-07-03T14:58:27;23.23;;;7.38;;
64419;SDS011;50745;48.170;14.516;2022-07-03T15:18:36;27.58;;;7.32;;
64419;SDS011;50745;48.170;14.516;2022-07-03T15:28:41;23.73;;;6.38;;
64419;SDS011;50745;48.170;14.516;2022-07-03T15:38:44;14.15;;;5.60;;
64419;SDS011;50745;48.170;14.516;2022-07-03T15:59:15;12.32;;;5.13;;
64419;SDS011;50745;48.170;14.516;2022-07-03T16:09:17;8.90;;;4.80;;
64419;SDS011;50745;48.170;14.516;2022-07-03T16:19:19;10.55;;;4.32;;
64419;SDS011;50745;48.170;14.516;2022-07-03T16:40:15;5.90;;;3.90;;
64419;SDS011;50745;48.170;14.516;2022-07-03T16:50:19;7.85;;;4.07;;
64419;SDS011;50745;48.170;14.516;2022-07-03T17:00:25;8.25;;;4.55;;
64419;SDS011;50745;48.170;14.516;2022-07-03T17:10:27;6.82;;;3.55;;
64419;SDS011;50745;48.170;14.516;2022-07-03T17:20:30;7.65;;;3.75;;
64419;SDS011;50745;48.170;14.516;2022-07-03T17:30:37;7.13;;;3.80;;
64419;SDS011;50745;48.170;14.516;2022-07-03T17:40:40;4.20;;;3.13;;
64419;SDS011;50745;48.170;14.516;2022-07-03T17:50:42;5.57;;;3.47;;
64419;SDS011;50745;48.170;14.516;2022-07-03T18:00:44;3.78;;;3.10;;
64419;SDS011;50745;48.170;14.516;2022-07-03T18:10:57;6.18;;;3.10;;
64419;SDS011;50745;48.170;14.516;2022-07-03T18:21:11;4.97;;;3.60;;
64419;SDS011;50745;48.170;14.516;2022-07-03T18:31:15;5.43;;;3.90;;
64419;SDS011;50745;48.170;14.516;2022-07-03T18:41:17;7.65;;;3.60;;
64419;SDS011;50745;48.170;14.516;2022-07-03T18:51:21;5.28;;;3.65;;
64419;SDS011;50745;48.170;14.516;2022-07-03T19:01:26;5.00;;;3.28;;
64419;SDS011;50745;48.170;14.516;2022-07-03T19:11:37;4.30;;;3.30;;
64419;SDS011;50745;48.170;14.516;2022-07-03T19:21:40;4.78;;;3.63;;
64419;SDS011;50745;48.170;14.516;2022-07-03T19:31:42;4.93;;;3.30;;
64419;SDS011;50745;48.170;14.516;2022-07-03T19:41:43;6.78;;;3.17;;
64419;SDS011;50745;48.170;14.516;2022-07-03T19:51:44;4.75;;;3.38;;
64419;SDS011;50745;48.170;14.516;2022-07-03T20:01:46;4.90;;;3.42;;
64419;SDS011;50745;48.170;14.516;2022-07-03T20:11:49;6.38;;;3.60;;
64419;SDS011;50745;48.170;14.516;2022-07-03T20:21:50;5.50;;;4.53;;
64419;SDS011;50745;48.170;14.516;2022-07-03T20:31:51;6.28;;;4.80;;
64419;SDS011;50745;48.170;14.516;2022-07-03T20:41:53;6.78;;;4.50;;
64419;SDS011;50745;48.170;14.516;2022-07-03T20:51:58;6.43;;;4.35;;
64419;SDS011;50745;48.170;14.516;2022-07-03T21:01:59;5.60;;;4.22;;
64419;SDS011;50745;48.170;14.516;2022-07-03T21:12:01;5.90;;;4.20;;
64419;SDS011;50745;48.170;14.516;2022-07-03T21:22:04;5.43;;;4.07;;
64419;SDS011;50745;48.170;14.516;2022-07-03T21:32:07;4.97;;;4.10;;
64419;SDS011;50745;48.170;14.516;2022-07-03T21:42:09;5.25;;;4.10;;
64419;SDS011;50745;48.170;14.516;2022-07-03T21:52:11;6.38;;;4.20;;
64419;SDS011;50745;48.170;14.516;2022-07-03T22:02:12;5.43;;;3.90;;
64419;SDS011;50745;48.170;14.516;2022-07-03T22:12:14;5.13;;;4.32;;
64419;SDS011;50745;48.170;14.516;2022-07-03T22:22:35;6.10;;;4.40;;
64419;SDS011;50745;48.170;14.516;2022-07-03T22:32:38;5.50;;;4.00;;
64419;SDS011;50745;48.170;14.516;2022-07-03T22:42:46;5.40;;;4.03;;
64419;SDS011;50745;48.170;14.516;2022-07-03T22:52:48;6.60;;;4.68;;
64419;SDS011;50745;48.170;14.516;2022-07-03T23:02:50;6.82;;;4.25;;
64419;SDS011;50745;48.170;14.516;2022-07-03T23:12:51;4.88;;;4.07;;
64419;SDS011;50745;48.170;14.516;2022-07-03T23:22:52;4.85;;;3.90;;
64419;SDS011;50745;48.170;14.516;2022-07-03T23:32:54;6.55;;;4.35;;
64419;SDS011;50745;48.170;14.516;2022-07-03T23:42:55;5.15;;;3.75;;
64419;SDS011;50745;48.170;14.516;2022-07-03T23:52:57;4.50;;;3.70;;
